Time;durP1;ratioP1;P1;durP2;ratioP2;P2;SDS_P1;SDS_P2;PMS_P1;PMS_P2;Temp;Humidity;BMP_temperature;BMP_pressure;BME280_temperature;BME280_humidity;BME280_pressure;Samples;Min_cycle;Max_cycle;Signal;HPM_P1;HPM_P2
2022/09/13 00:00:58;;;;;;;2.67;1.73;;;;;;;15.13;98.55;98323.16;5028853;28;20459;-60
2022/09/13 00:03:25;;;;;;;3.90;1.88;;;;;;;15.02;98.90;98332.22;5033768;28;20039;-60
2022/09/13 00:05:51;;;;;;;2.65;1.95;;;;;;;14.83;100.00;98325.34;5026918;28;20036;-60
2022/09/13 00:08:17;;;;;;;3.13;1.85;;;;;;;14.80;100.00;98309.44;5020936;28;20411;-60
2022/09/13 00:10:43;;;;;;;3.03;2.22;;;;;;;14.79;100.00;98307.81;5028535;28;20117;-62
2022/09/13 00:13:11;;;;;;;2.20;1.70;;;;;;;14.77;100.00;98310.75;5028968;28;20025;-60
2022/09/13 00:15:41;;;;;;;4.75;2.33;;;;;;;14.71;100.00;98316.38;5040756;28;20021;-60
2022/09/13 00:18:06;;;;;;;5.82;2.00;;;;;;;14.64;100.00;98311.88;5024843;28;20029;-60
2022/09/13 00:20:31;;;;;;;2.90;1.98;;;;;;;14.55;100.00;98315.22;5021153;28;20033;-61
2022/09/13 00:22:57;;;;;;;3.15;2.00;;;;;;;14.51;100.00;98303.94;5022356;28;20461;-61
2022/09/13 00:25:22;;;;;;;2.42;1.77;;;;;;;14.44;100.00;98301.38;5027375;28;20090;-61
2022/09/13 00:27:47;;;;;;;2.53;1.73;;;;;;;14.33;100.00;98294.09;5030787;28;20079;-64
2022/09/13 00:30:13;;;;;;;2.53;1.77;;;;;;;14.29;100.00;98290.16;5039154;28;20488;-61
2022/09/13 00:32:38;;;;;;;3.47;2.10;;;;;;;14.23;100.00;98278.34;5025410;28;20112;-61
2022/09/13 00:35:05;;;;;;;2.95;2.25;;;;;;;14.22;100.00;98295.72;5029184;28;20480;-60
2022/09/13 00:37:32;;;;;;;3.05;1.98;;;;;;;14.18;100.00;98299.19;5027769;28;20020;-61
2022/09/13 00:39:58;;;;;;;3.10;1.95;;;;;;;14.16;100.00;98293.16;5026428;28;20459;-60
2022/09/13 00:42:25;;;;;;;3.30;2.40;;;;;;;14.18;100.00;98294.56;5023871;28;20032;-60
2022/09/13 00:45:01;;;;;;;4.68;2.40;;;;;;;14.15;100.00;98299.69;5025186;28;20036;-60
2022/09/13 00:47:38;;;;;;;3.30;2.28;;;;;;;14.16;100.00;98293.97;5024395;28;20021;-60
2022/09/13 00:50:26;;;;;;;3.05;2.15;;;;;;;14.09;100.00;98298.72;5021315;28;20507;-61
2022/09/13 00:53:06;;;;;;;2.20;1.75;;;;;;;14.03;100.00;98289.63;5041040;28;20076;-61
2022/09/13 00:55:54;;;;;;;2.97;2.20;;;;;;;13.95;100.00;98281.00;5022609;28;20051;-61
2022/09/13 00:58:25;;;;;;;5.53;2.20;;;;;;;14.03;100.00;98275.19;5026585;28;20025;-61
2022/09/13 01:00:52;;;;;;;3.30;2.13;;;;;;;14.07;100.00;98273.66;5025155;28;20130;-61
2022/09/13 01:03:20;;;;;;;5.43;2.00;;;;;;;14.10;100.00;98280.53;5025737;28;20495;-61
2022/09/13 01:05:53;;;;;;;7.75;2.45;;;;;;;14.04;100.00;98290.44;5040705;28;20029;-61
2022/09/13 01:08:21;;;;;;;2.63;2.05;;;;;;;13.89;100.00;98281.97;5027106;28;20469;-61
2022/09/13 01:10:49;;;;;;;4.00;2.30;;;;;;;13.81;100.00;98270.38;5027839;28;20480;-61
2022/09/13 01:13:45;;;;;;;3.20;2.40;;;;;;;13.78;100.00;98276.28;5025155;28;20364;-61
2022/09/13 01:16:11;;;;;;;3.78;2.50;;;;;;;13.67;100.00;98271.66;5006199;28;20040;-60
2022/09/13 01:18:37;;;;;;;3.65;2.70;;;;;;;13.59;100.00;98282.88;5029169;28;20499;-61
2022/09/13 01:21:08;;;;;;;4.18;2.35;;;;;;;13.54;100.00;98290.91;5022863;28;20119;-61
2022/09/13 01:24:07;;;;;;;3.63;2.42;;;;;;;13.49;100.00;98294.38;5023068;28;20040;-61
2022/09/13 01:27:13;;;;;;;3.67;2.42;;;;;;;13.40;100.00;98290.31;5040362;28;20051;-61
2022/09/13 01:30:11;;;;;;;4.00;2.20;;;;;;;13.28;100.00;98287.59;4989233;28;20047;-61
2022/09/13 01:32:56;;;;;;;3.15;2.00;;;;;;;13.26;100.00;98286.16;5036263;28;20116;-61
2022/09/13 01:35:37;;;;;;;3.42;2.65;;;;;;;13.24;100.00;98283.66;5029634;28;20040;-61
2022/09/13 01:38:24;;;;;;;4.07;2.50;;;;;;;13.26;100.00;98287.00;5032544;28;20473;-61
2022/09/13 01:41:28;;;;;;;2.85;2.13;;;;;;;13.27;100.00;98277.78;5017418;28;20378;-64
2022/09/13 01:44:02;;;;;;;2.92;2.33;;;;;;;13.47;100.00;98276.63;5027734;28;20079;-61
2022/09/13 01:46:37;;;;;;;3.63;2.55;;;;;;;13.39;100.00;98280.53;5034277;28;20025;-61
2022/09/13 01:49:13;;;;;;;3.20;2.13;;;;;;;13.34;100.00;98264.91;5038147;28;20075;-61
2022/09/13 01:51:48;;;;;;;6.00;2.92;;;;;;;13.19;100.00;98267.22;5016941;28;20435;-61
2022/09/13 01:54:40;;;;;;;4.68;2.90;;;;;;;13.10;100.00;98261.31;5026029;28;20489;-61
2022/09/13 01:57:29;;;;;;;4.20;2.70;;;;;;;13.02;100.00;98271.66;5021646;28;20048;-61
2022/09/13 02:00:11;;;;;;;5.45;3.25;;;;;;;12.89;100.00;98253.69;5038897;28;20041;-61
2022/09/13 02:02:46;;;;;;;4.10;2.72;;;;;;;12.82;100.00;98275.50;5032716;28;20037;-61
2022/09/13 02:05:23;;;;;;;2.55;2.15;;;;;;;12.74;100.00;98275.84;5028732;28;20083;-61
2022/09/13 02:08:03;;;;;;;4.13;2.30;;;;;;;12.66;100.00;98281.59;5031505;28;20048;-61
2022/09/13 02:10:35;;;;;;;4.32;2.50;;;;;;;12.63;100.00;98279.34;5023692;28;20027;-61
2022/09/13 02:13:05;;;;;;;4.13;2.40;;;;;;;12.58;100.00;98274.59;5031664;28;20381;-61
2022/09/13 02:15:43;;;;;;;3.47;2.25;;;;;;;12.49;100.00;98267.81;5026416;28;20028;-61
2022/09/13 02:18:14;;;;;;;4.05;2.40;;;;;;;12.43;100.00;98276.88;5025297;28;20380;-61
2022/09/13 02:20:47;;;;;;;2.92;2.25;;;;;;;12.39;100.00;98273.81;5042450;28;20037;-61
2022/09/13 02:23:18;;;;;;;3.58;2.58;;;;;;;12.37;100.00;98278.63;5029648;28;20025;-61
2022/09/13 02:25:47;;;;;;;4.13;2.47;;;;;;;12.38;100.00;98282.97;5028713;28;20058;-61
2022/09/13 02:28:21;;;;;;;3.90;2.58;;;;;;;12.57;100.00;98294.63;5028439;28;20024;-61
2022/09/13 02:30:52;;;;;;;4.78;2.85;;;;;;;12.57;100.00;98299.22;5027581;28;20504;-61
2022/09/13 02:33:22;;;;;;;4.28;2.78;;;;;;;12.58;100.00;98292.75;5047408;28;20051;-61
2022/09/13 02:35:54;;;;;;;3.47;2.70;;;;;;;12.52;100.00;98286.34;5028068;28;20052;-61
2022/09/13 02:38:26;;;;;;;3.38;2.50;;;;;;;12.48;100.00;98279.72;5028408;28;20192;-62
2022/09/13 02:40:59;;;;;;;3.30;2.50;;;;;;;12.46;100.00;98279.94;5031214;28;20032;-61
2022/09/13 02:43:37;;;;;;;5.68;3.13;;;;;;;12.69;100.00;98273.81;5032993;28;20029;-61
2022/09/13 02:46:25;;;;;;;6.72;2.78;;;;;;;12.86;100.00;98276.72;5026917;28;20488;-61
2022/09/13 02:49:08;;;;;;;3.28;2.47;;;;;;;12.84;100.00;98272.56;5014984;28;20048;-61
2022/09/13 02:52:26;;;;;;;5.57;2.85;;;;;;;12.70;100.00;98277.34;5029077;28;20033;-61
2022/09/13 02:55:09;;;;;;;3.40;2.50;;;;;;;12.56;100.00;98273.16;4941984;28;20110;-61
2022/09/13 02:57:47;;;;;;;3.22;2.40;;;;;;;12.46;100.00;98279.94;4935758;29;20019;-61
2022/09/13 03:00:13;;;;;;;4.43;2.72;;;;;;;12.33;100.00;98271.97;5015410;28;20037;-61
2022/09/13 03:02:41;;;;;;;3.90;2.80;;;;;;;12.21;100.00;98282.78;5032124;28;20099;-61
2022/09/13 03:05:07;;;;;;;8.73;2.42;;;;;;;12.16;100.00;98277.19;5033043;28;20052;-61
2022/09/13 03:07:32;;;;;;;4.95;2.30;;;;;;;12.15;100.00;98285.56;5027559;28;20472;-61
2022/09/13 03:10:05;;;;;;;4.78;2.85;;;;;;;12.13;100.00;98284.94;5027261;28;20037;-61
2022/09/13 03:13:04;;;;;;;5.47;3.00;;;;;;;12.21;100.00;98287.38;5027620;28;20045;-61
2022/09/13 03:16:03;;;;;;;2.97;2.40;;;;;;;12.34;100.00;98289.94;5027373;28;20169;-61
2022/09/13 03:18:32;;;;;;;3.25;2.42;;;;;;;12.52;100.00;98283.63;5032252;28;20021;-61
2022/09/13 03:21:18;;;;;;;4.13;2.80;;;;;;;12.57;100.00;98272.09;5023521;28;20032;-61
2022/09/13 03:23:59;;;;;;;3.17;2.50;;;;;;;12.57;100.00;98267.50;5042376;28;20028;-61
2022/09/13 03:26:50;;;;;;;4.95;2.88;;;;;;;12.53;100.00;98252.75;5030515;28;20016;-61
2022/09/13 03:29:50;;;;;;;4.05;2.70;;;;;;;12.36;100.00;98252.53;5021327;28;20021;-61
2022/09/13 03:32:42;;;;;;;3.80;2.80;;;;;;;12.16;100.00;98246.56;4910630;29;20454;-61
2022/09/13 03:35:30;;;;;;;5.40;3.83;;;;;;;12.09;100.00;98245.78;5018121;28;20040;-62
2022/09/13 03:38:06;;;;;;;5.15;3.45;;;;;;;12.04;100.00;98265.44;5028603;28;20115;-60
2022/09/13 03:40:32;;;;;;;7.47;3.30;;;;;;;11.95;100.00;98288.50;5022737;28;20032;-60
2022/09/13 03:43:08;;;;;;;3.60;2.88;;;;;;;11.86;100.00;98287.94;5029408;28;20496;-60
2022/09/13 03:45:40;;;;;;;3.22;2.30;;;;;;;11.81;100.00;98309.44;5033534;28;20072;-60
2022/09/13 03:48:07;;;;;;;5.43;2.45;;;;;;;11.55;100.00;98319.50;5031995;28;20029;-60
2022/09/13 03:50:33;;;;;;;3.33;2.53;;;;;;;11.40;100.00;98305.44;5041021;28;20029;-60
2022/09/13 03:53:06;;;;;;;3.08;2.15;;;;;;;11.43;100.00;98288.75;5034286;28;20064;-60
2022/09/13 03:55:33;;;;;;;4.43;2.90;;;;;;;11.56;100.00;98266.13;5044164;28;20020;-60
2022/09/13 03:57:59;;;;;;;4.70;3.75;;;;;;;11.55;100.00;98265.31;5035803;28;20547;-60
2022/09/13 04:00:25;;;;;;;6.00;3.35;;;;;;;11.54;100.00;98263.63;5030438;28;20029;-60
2022/09/13 04:02:50;;;;;;;10.10;4.07;;;;;;;11.46;100.00;98272.03;5031761;28;20025;-60
2022/09/13 04:05:16;;;;;;;7.88;3.85;;;;;;;11.39;100.00;98266.66;5034502;28;20491;-60
2022/09/13 04:07:43;;;;;;;6.47;3.95;;;;;;;11.38;100.00;98258.78;5036250;28;20047;-61
2022/09/13 04:10:09;;;;;;;8.73;4.72;;;;;;;11.45;100.00;98251.44;5027925;28;20136;-60
2022/09/13 04:12:35;;;;;;;7.15;3.78;;;;;;;11.63;100.00;98237.06;5030722;28;20166;-60
2022/09/13 04:15:00;;;;;;;9.85;3.70;;;;;;;11.54;100.00;98233.00;5024132;28;20439;-61
2022/09/13 04:17:26;;;;;;;5.63;3.58;;;;;;;11.44;100.00;98238.94;5024932;28;20019;-61
2022/09/13 04:19:52;;;;;;;5.07;3.42;;;;;;;11.41;100.00;98251.03;5025140;28;20119;-61
2022/09/13 04:22:17;;;;;;;7.57;3.90;;;;;;;11.46;100.00;98257.69;5027567;28;20025;-62
2022/09/13 04:24:43;;;;;;;9.63;3.58;;;;;;;11.46;100.00;98258.50;5028028;28;20799;-61
2022/09/13 04:27:08;;;;;;;5.50;3.22;;;;;;;11.41;100.00;98253.75;5027183;28;20337;-62
2022/09/13 04:29:34;;;;;;;6.55;2.85;;;;;;;11.29;100.00;98244.72;5027475;28;20049;-61
2022/09/13 04:31:59;;;;;;;4.03;2.95;;;;;;;11.18;100.00;98254.34;5032562;28;20025;-61
2022/09/13 04:34:25;;;;;;;5.93;3.35;;;;;;;11.23;100.00;98261.81;5038066;28;20033;-62
2022/09/13 04:36:52;;;;;;;7.53;3.58;;;;;;;11.19;100.00;98264.16;5023170;28;20022;-61
2022/09/13 04:39:22;;;;;;;6.47;3.38;;;;;;;11.24;100.00;98278.88;5024608;28;20465;-61
2022/09/13 04:41:48;;;;;;;5.40;3.40;;;;;;;11.40;100.00;98281.88;5010286;28;20148;-61
2022/09/13 04:44:15;;;;;;;5.20;2.88;;;;;;;11.45;100.00;98285.78;5028970;28;20025;-61
2022/09/13 04:46:42;;;;;;;4.40;3.20;;;;;;;11.48;100.00;98294.34;5025523;28;20472;-61
2022/09/13 04:49:09;;;;;;;5.05;3.50;;;;;;;11.58;100.00;98299.22;5021755;28;20933;-61
2022/09/13 04:51:34;;;;;;;8.98;3.38;;;;;;;11.63;100.00;98296.69;5025922;28;20087;-61
2022/09/13 04:54:00;;;;;;;6.25;3.20;;;;;;;11.73;100.00;98291.59;5027214;28;20595;-62
2022/09/13 04:56:26;;;;;;;5.18;3.47;;;;;;;12.03;100.00;98286.31;5030168;28;20028;-61
2022/09/13 04:58:53;;;;;;;9.38;3.38;;;;;;;12.23;100.00;98296.91;5026468;28;20402;-65
2022/09/13 05:01:19;;;;;;;5.57;3.47;;;;;;;12.32;100.00;98299.34;5033984;28;20445;-61
2022/09/13 05:03:45;;;;;;;7.22;3.15;;;;;;;12.34;100.00;98302.63;5034709;28;20028;-61
2022/09/13 05:06:16;;;;;;;5.35;3.47;;;;;;;12.33;100.00;98301.00;5031937;28;20033;-62
2022/09/13 05:08:43;;;;;;;5.25;3.47;;;;;;;12.34;100.00;98308.91;5030148;28;20025;-62
2022/09/13 05:11:08;;;;;;;8.05;3.45;;;;;;;12.27;100.00;98303.56;5026104;28;20028;-61
2022/09/13 05:13:35;;;;;;;12.70;3.13;;;;;;;12.27;100.00;98308.16;5033736;28;20116;-62
2022/09/13 05:16:04;;;;;;;4.68;3.53;;;;;;;12.32;100.00;98310.19;5050474;28;20479;-62
2022/09/13 05:18:31;;;;;;;;;;;;;;;12.47;100.00;98292.47;5031412;28;20016;-61
2022/09/13 05:20:57;;;;;;;4.75;3.30;;;;;;;12.47;100.00;98297.91;5042458;28;19932;-62
2022/09/13 05:23:23;;;;;;;4.60;2.83;;;;;;;12.56;100.00;98306.56;5034884;28;20029;-61
2022/09/13 05:25:59;;;;;;;6.88;3.15;;;;;;;12.69;100.00;98300.13;5041675;28;20041;-60
2022/09/13 05:28:28;;;;;;;4.18;2.70;;;;;;;12.89;100.00;98295.25;5034035;28;20047;-60
2022/09/13 05:31:02;;;;;;;6.95;3.28;;;;;;;14.11;100.00;98310.19;5035488;28;20097;-60
2022/09/13 05:33:32;;;;;;;8.95;2.60;;;;;;;14.72;100.00;98309.84;5037620;28;20028;-60
2022/09/13 05:35:58;;;;;;;4.85;2.78;;;;;;;14.85;100.00;98317.72;5035764;28;20021;-60
2022/09/13 05:38:23;;;;;;;4.25;2.53;;;;;;;14.93;100.00;98314.59;5021181;28;20111;-60
2022/09/13 05:41:00;;;;;;;4.82;3.03;;;;;;;14.56;100.00;98309.53;5024638;28;20056;-60
2022/09/13 05:43:27;;;;;;;3.78;2.85;;;;;;;14.19;100.00;98312.53;5032326;28;20400;-60
2022/09/13 05:46:17;;;;;;;9.40;3.20;;;;;;;13.94;100.00;98320.16;5023060;28;20032;-61
2022/09/13 05:48:43;;;;;;;5.18;3.28;;;;;;;13.77;100.00;98315.41;5027042;28;20460;-60
2022/09/13 05:51:19;;;;;;;3.85;3.17;;;;;;;13.82;100.00;98320.97;5030006;28;20123;-60
2022/09/13 05:53:48;;;;;;;4.53;3.35;;;;;;;13.76;100.00;98327.34;5028268;28;20024;-60
2022/09/13 05:56:16;;;;;;;5.43;2.75;;;;;;;13.82;100.00;98326.41;5042990;28;20573;-60
2022/09/13 05:58:44;;;;;;;5.22;3.45;;;;;;;13.97;100.00;98323.22;5032367;28;20116;-60
2022/09/13 06:01:11;;;;;;;4.57;3.22;;;;;;;14.25;100.00;98319.75;5022904;28;20033;-60
2022/09/13 06:03:36;;;;;;;5.93;3.10;;;;;;;14.46;100.00;98314.72;5026730;28;20128;-60
2022/09/13 06:06:03;;;;;;;8.43;3.47;;;;;;;14.50;100.00;98312.38;5027644;28;20545;-61
2022/09/13 06:08:30;;;;;;;6.93;3.47;;;;;;;14.60;100.00;98315.34;5028381;28;20070;-60
2022/09/13 06:10:57;;;;;;;5.15;3.13;;;;;;;14.82;100.00;98320.94;5030125;28;20029;-61
2022/09/13 06:13:25;;;;;;;7.05;3.00;;;;;;;14.96;100.00;98325.03;5032782;28;20582;-61
2022/09/13 06:15:51;;;;;;;9.57;3.88;;;;;;;15.19;100.00;98323.25;5030833;28;20033;-62
2022/09/13 06:18:17;;;;;;;8.73;3.47;;;;;;;15.40;99.94;98336.16;5029219;28;20029;-61
2022/09/13 06:20:43;;;;;;;6.88;3.30;;;;;;;15.42;100.00;98334.03;5032435;28;20033;-60
2022/09/13 06:23:08;;;;;;;6.32;3.28;;;;;;;15.53;100.00;98335.03;5031996;28;20376;-61
2022/09/13 06:25:34;;;;;;;8.77;3.05;;;;;;;15.50;98.14;98338.25;5028137;28;20067;-61
2022/09/13 06:27:59;;;;;;;6.38;3.17;;;;;;;15.49;100.00;98351.06;5022621;28;20484;-60
2022/09/13 06:30:25;;;;;;;5.00;2.90;;;;;;;15.44;99.55;98341.97;5027376;28;20056;-61
2022/09/13 06:32:50;;;;;;;5.85;3.13;;;;;;;15.37;100.00;98342.13;5029814;28;20037;-61
2022/09/13 06:35:16;;;;;;;7.05;4.05;;;;;;;15.76;96.81;98323.16;5029059;28;20036;-61
2022/09/13 06:37:42;;;;;;;6.95;3.30;;;;;;;15.78;95.46;98326.47;5032004;28;20032;-61
2022/09/13 06:40:08;;;;;;;5.47;2.75;;;;;;;16.01;92.94;98328.19;5028119;28;20039;-63
2022/09/13 06:42:34;;;;;;;7.47;2.85;;;;;;;16.42;88.97;98305.00;5034382;28;20021;-61
2022/09/13 06:45:00;;;;;;;5.28;3.00;;;;;;;17.13;82.68;98306.94;5030539;28;20036;-61
2022/09/13 06:47:25;;;;;;;6.25;3.20;;;;;;;18.09;76.39;98314.31;5030291;28;20041;-60
2022/09/13 06:49:51;;;;;;;3.63;2.70;;;;;;;18.91;71.40;98311.97;5029620;28;20061;-61
2022/09/13 06:52:16;;;;;;;8.60;2.70;;;;;;;19.92;66.68;98313.19;5029787;28;20064;-61
2022/09/13 06:54:42;;;;;;;3.97;2.40;;;;;;;20.74;63.58;98309.44;5033687;28;20099;-67
2022/09/13 06:57:08;;;;;;;3.42;2.53;;;;;;;21.38;62.00;98321.50;5034304;28;20048;-61
2022/09/13 06:59:33;;;;;;;5.05;2.60;;;;;;;21.63;58.75;98296.50;5019302;28;20048;-63
2022/09/13 07:01:59;;;;;;;6.63;2.70;;;;;;;21.59;59.15;98311.16;5036961;28;20060;-61
2022/09/13 07:04:25;;;;;;;9.65;2.65;;;;;;;21.48;58.50;98310.38;5029578;28;20198;-61
2022/09/13 07:06:51;;;;;;;3.83;2.67;;;;;;;20.65;60.67;98300.97;5024104;28;20025;-60
2022/09/13 07:09:21;;;;;;;4.93;2.63;;;;;;;20.57;61.96;98285.88;5030235;28;20035;-61
2022/09/13 07:11:51;;;;;;;7.07;2.30;;;;;;;20.96;60.91;98285.13;5022714;28;20013;-61
2022/09/13 07:14:25;;;;;;;5.97;2.65;;;;;;;22.47;56.26;98282.47;5029155;28;20056;-61
2022/09/13 07:16:51;;;;;;;13.32;3.25;;;;;;;24.58;50.94;98291.06;5024202;28;20035;-62
2022/09/13 07:19:21;;;;;;;6.32;2.65;;;;;;;24.79;50.45;98288.69;5030019;28;20032;-62
2022/09/13 07:21:50;;;;;;;6.60;2.50;;;;;;;24.80;49.58;98284.78;5029394;28;20025;-63
2022/09/13 07:24:17;;;;;;;12.13;2.42;;;;;;;25.93;47.17;98280.22;5028903;28;20040;-63
2022/09/13 07:26:42;;;;;;;5.85;2.50;;;;;;;25.82;48.01;98289.91;5030340;28;20087;-63
2022/09/13 07:29:11;;;;;;;4.90;2.08;;;;;;;27.49;44.43;98286.28;5031065;28;20032;-62
2022/09/13 07:31:39;;;;;;;7.05;2.10;;;;;;;28.41;42.88;98294.25;5030159;28;20060;-62
2022/09/13 07:34:06;;;;;;;3.05;1.77;;;;;;;29.09;42.13;98293.47;5030260;28;20060;-62
2022/09/13 07:36:34;;;;;;;3.42;1.95;;;;;;;30.11;40.01;98288.50;5018939;28;20111;-61
2022/09/13 07:39:00;;;;;;;11.55;2.20;;;;;;;29.62;41.11;98294.69;5025706;28;20104;-63
2022/09/13 07:41:27;;;;;;;8.20;2.17;;;;;;;28.02;43.49;98291.78;5029297;28;20344;-64
2022/09/13 07:43:54;;;;;;;9.35;2.22;;;;;;;26.09;48.01;98281.44;5029530;28;20043;-64
2022/09/13 07:46:22;;;;;;;8.30;1.83;;;;;;;24.99;49.57;98282.69;5024610;28;20021;-63
2022/09/13 07:48:48;;;;;;;3.58;1.73;;;;;;;24.37;51.26;98283.16;5028423;28;20021;-63
2022/09/13 07:51:17;;;;;;;2.85;1.52;;;;;;;24.74;51.21;98280.50;5024876;28;20036;-63
2022/09/13 07:53:44;;;;;;;6.13;1.63;;;;;;;23.84;53.10;98278.88;5028331;28;20112;-63
2022/09/13 07:56:12;;;;;;;3.28;1.50;;;;;;;23.43;54.34;98275.94;5029966;28;20118;-64
2022/09/13 07:58:39;;;;;;;6.00;1.43;;;;;;;23.30;55.23;98273.94;5031688;28;20021;-63
2022/09/13 08:01:23;;;;;;;3.10;1.42;;;;;;;23.35;55.52;98285.72;5025906;28;20373;-64
2022/09/13 08:03:52;;;;;;;6.63;1.25;;;;;;;24.31;52.82;98295.41;5032181;28;20550;-64
2022/09/13 08:06:17;;;;;;;6.63;1.23;;;;;;;24.55;52.26;98298.03;5023591;28;20090;-62
2022/09/13 08:08:43;;;;;;;8.88;1.27;;;;;;;25.24;50.30;98286.06;5020498;28;20755;-63
2022/09/13 08:11:16;;;;;;;5.15;1.40;;;;;;;25.61;48.32;98281.31;5028031;28;21155;-62
2022/09/13 08:13:41;;;;;;;8.48;1.63;;;;;;;25.87;47.34;98275.97;5026413;28;20021;-63
2022/09/13 08:16:06;;;;;;;9.70;1.60;;;;;;;25.26;48.70;98272.72;5028463;28;20084;-62
2022/09/13 08:18:32;;;;;;;7.28;1.65;;;;;;;25.19;48.76;98288.94;5029115;28;20116;-63
2022/09/13 08:20:59;;;;;;;5.43;1.70;;;;;;;25.01;49.39;98287.94;5033253;28;20128;-67
2022/09/13 08:23:26;;;;;;;6.00;1.50;;;;;;;25.65;47.54;98285.06;5027937;28;20483;-67
2022/09/13 08:25:51;;;;;;;9.30;1.50;;;;;;;24.49;50.17;98282.66;5031808;28;20112;-65
2022/09/13 08:28:20;;;;;;;10.57;1.73;;;;;;;25.95;47.83;98264.09;5021644;28;20140;-67
2022/09/13 08:30:46;;;;;;;5.65;1.50;;;;;;;26.76;45.04;98274.09;5030687;28;20021;-66
2022/09/13 08:33:12;;;;;;;7.00;1.30;;;;;;;27.84;42.70;98279.88;5023915;28;20056;-66
2022/09/13 08:35:38;;;;;;;7.45;1.30;;;;;;;27.73;42.80;98269.06;5032182;28;20056;-65
2022/09/13 08:38:04;;;;;;;3.78;1.30;;;;;;;27.64;43.05;98268.28;5030944;28;20379;-66
2022/09/13 08:40:40;;;;;;;5.85;1.20;;;;;;;27.43;44.01;98264.53;5019962;28;20469;-61
2022/09/13 08:43:39;;;;;;;4.65;1.23;;;;;;;27.91;42.76;98274.63;5026713;28;20033;-62
2022/09/13 08:46:17;;;;;;;3.50;1.30;;;;;;;28.67;42.45;98273.06;5022629;28;20032;-62
2022/09/13 08:48:46;;;;;;;6.88;1.33;;;;;;;27.63;42.98;98286.09;5027223;28;20028;-63
2022/09/13 08:51:26;;;;;;;5.40;1.15;;;;;;;26.72;44.56;98285.00;5042782;28;20044;-61
2022/09/13 08:53:52;;;;;;;7.82;1.30;;;;;;;26.96;44.91;98280.97;5042914;28;20064;-62
2022/09/13 08:56:26;;;;;;;9.43;1.40;;;;;;;27.35;45.25;98273.69;5019879;28;20037;-61
2022/09/13 08:59:27;;;;;;;5.95;1.17;;;;;;;26.84;46.06;98270.50;5032443;28;20721;-61
2022/09/13 09:02:08;;;;;;;20.92;1.73;;;;;;;26.98;44.84;98270.34;4960625;28;20030;-62
2022/09/13 09:04:45;;;;;;;3.55;1.40;;;;;;;26.77;46.01;98273.75;5020851;28;20063;-63
2022/09/13 09:07:22;;;;;;;7.13;1.40;;;;;;;26.40;45.80;98278.66;5031428;28;20021;-62
2022/09/13 09:09:52;;;;;;;3.75;0.88;;;;;;;26.32;45.59;98273.91;5029447;28;20091;-62
2022/09/13 09:12:42;;;;;;;6.28;1.10;;;;;;;25.43;47.27;98270.09;5027094;28;20036;-62
2022/09/13 09:15:13;;;;;;;6.60;1.10;;;;;;;24.98;48.95;98280.25;5016148;28;20037;-61
2022/09/13 09:17:59;;;;;;;5.43;1.40;;;;;;;24.28;50.48;98283.00;5042423;28;20428;-61
2022/09/13 09:20:31;;;;;;;2.25;1.13;;;;;;;23.97;52.14;98270.91;5027719;28;20469;-61
2022/09/13 09:23:01;;;;;;;2.15;0.82;;;;;;;24.88;48.08;98262.72;5036165;28;20033;-61
2022/09/13 09:25:26;;;;;;;2.17;1.08;;;;;;;25.26;47.75;98262.47;5026894;28;20026;-61
2022/09/13 09:27:53;;;;;;;2.25;1.00;;;;;;;26.08;45.96;98267.94;5021615;28;20890;-61
2022/09/13 09:30:19;;;;;;;2.95;1.00;;;;;;;26.44;45.41;98268.56;5026115;28;20056;-61
2022/09/13 09:33:19;;;;;;;3.70;1.10;;;;;;;26.97;43.90;98261.22;5030386;28;20025;-61
2022/09/13 09:35:58;;;;;;;1.35;1.17;;;;;;;27.03;43.63;98261.88;5019398;28;20033;-64
2022/09/13 09:38:42;;;;;;;86.85;6.90;;;;;;;27.09;43.41;98258.63;5036940;28;20029;-64
2022/09/13 09:41:31;;;;;;;5.88;1.92;;;;;;;27.83;41.36;98264.34;5018938;28;20045;-66
2022/09/13 09:44:22;;;;;;;16.30;2.55;;;;;;;30.69;36.94;98258.56;5032185;28;20056;-66
2022/09/13 09:47:12;;;;;;;4.20;1.20;;;;;;;33.55;32.27;98250.59;5032263;28;20021;-66
2022/09/13 09:50:13;;;;;;;3.00;1.27;;;;;;;34.46;31.23;98254.72;5029439;28;20073;-68
2022/09/13 09:52:43;;;;;;;3.45;0.75;;;;;;;36.71;28.11;98248.28;5018049;28;20047;-67
2022/09/13 09:55:38;;;;;;;4.50;0.90;;;;;;;38.50;26.23;98234.09;5035594;28;20113;-69
2022/09/13 09:58:07;;;;;;;4.32;1.25;;;;;;;38.18;26.33;98232.03;5043490;28;20055;-69
2022/09/13 10:00:49;;;;;;;3.30;1.20;;;;;;;38.00;26.27;98226.38;5022708;28;20036;-66
2022/09/13 10:03:27;;;;;;;1.02;0.68;;;;;;;37.27;27.28;98237.78;5048489;28;20038;-62
2022/09/13 10:06:17;;;;;;;2.10;0.60;;;;;;;37.05;27.42;98245.31;5039337;28;20025;-62
2022/09/13 10:08:53;;;;;;;3.00;0.80;;;;;;;37.91;26.23;98251.31;5027994;28;20051;-63
2022/09/13 10:11:21;;;;;;;2.60;0.98;;;;;;;38.24;25.42;98240.94;5026353;28;20690;-59
2022/09/13 10:14:01;;;;;;;1.50;0.98;;;;;;;38.13;25.63;98255.03;5024799;28;20715;-61
2022/09/13 10:16:30;;;;;;;2.50;0.68;;;;;;;37.55;26.07;98256.88;5045277;28;20021;-62
2022/09/13 10:19:28;;;;;;;2.53;0.80;;;;;;;35.75;27.93;98256.59;5028799;28;20497;-62
2022/09/13 10:22:04;;;;;;;;;;;;;;;35.74;28.15;98250.16;4979770;28;20048;-61
2022/09/13 10:24:30;;;;;;;4.55;1.00;;;;;;;34.46;29.91;98241.47;5031758;28;20430;-62
2022/09/13 10:26:58;;;;;;;1.63;0.50;;;;;;;33.83;29.83;98239.94;5029157;28;20013;-61
2022/09/13 10:29:27;;;;;;;2.33;0.80;;;;;;;34.03;30.41;98248.31;5031494;28;20036;-62
2022/09/13 10:31:56;;;;;;;2.22;0.68;;;;;;;34.61;28.93;98239.75;5029502;28;21297;-61
2022/09/13 10:34:31;;;;;;;0.80;0.70;;;;;;;36.68;26.43;98235.00;5029794;28;20131;-62
2022/09/13 10:37:11;;;;;;;5.18;0.80;;;;;;;34.53;28.77;98232.34;5032671;28;20619;-66
2022/09/13 10:39:48;;;;;;;1.58;0.88;;;;;;;32.84;30.15;98250.59;5029984;28;20114;-67
2022/09/13 10:42:22;;;;;;;4.85;2.30;;;;;;;32.00;31.46;98243.31;5030069;28;20480;-66
2022/09/13 10:45:01;;;;;;;4.25;1.00;;;;;;;31.18;32.67;98232.56;5032063;28;20130;-66
2022/09/13 10:47:43;;;;;;;3.13;0.90;;;;;;;32.39;32.08;98240.69;5030571;28;20718;-67
2022/09/13 10:50:25;;;;;;;3.63;0.93;;;;;;;33.33;29.60;98232.50;5029177;28;20032;-67
2022/09/13 10:52:56;;;;;;;2.20;0.85;;;;;;;32.53;30.32;98241.06;5024873;28;20086;-67
2022/09/13 10:55:21;;;;;;;5.32;1.23;;;;;;;32.88;30.64;98234.69;5027908;28;20123;-69
2022/09/13 10:57:52;;;;;;;32.95;1.48;;;;;;;32.11;31.88;98234.38;5026975;28;20059;-67
2022/09/13 11:00:30;;;;;;;16.75;1.20;;;;;;;32.97;30.84;98226.09;5027046;28;20025;-68
2022/09/13 11:03:22;;;;;;;2.92;0.68;;;;;;;33.51;29.55;98224.41;5026552;28;20665;-68
2022/09/13 11:06:20;;;;;;;2.22;0.77;;;;;;;32.99;30.05;98223.72;5029838;28;20140;-68
2022/09/13 11:09:17;;;;;;;3.75;0.65;;;;;;;32.57;30.73;98229.97;5021525;28;20056;-69
2022/09/13 11:12:09;;;;;;;10.20;0.77;;;;;;;34.48;28.61;98224.25;4997562;28;20037;-68
2022/09/13 11:14:34;;;;;;;1.05;0.63;;;;;;;33.21;28.77;98222.22;5031935;28;20133;-68
2022/09/13 11:17:27;;;;;;;11.77;1.58;;;;;;;32.07;30.53;98235.09;5024549;28;20342;-69
2022/09/13 11:20:17;;;;;;;8.98;0.80;;;;;;;31.44;31.67;98234.94;5023842;28;20040;-68
2022/09/13 11:23:10;;;;;;;5.93;0.80;;;;;;;31.09;32.78;98238.28;5026416;28;20091;-69
2022/09/13 11:25:57;;;;;;;3.15;0.80;;;;;;;30.28;33.19;98235.28;5027203;28;20017;-68
2022/09/13 11:28:58;;;;;;;1.77;0.95;;;;;;;30.32;34.39;98241.00;5015464;28;20113;-69
2022/09/13 11:31:36;;;;;;;6.80;0.77;;;;;;;29.21;35.70;98234.22;4986196;28;20159;-68
2022/09/13 11:34:07;;;;;;;8.47;0.87;;;;;;;29.34;35.37;98237.88;5029986;28;20028;-68
2022/09/13 11:36:42;;;;;;;3.20;1.00;;;;;;;29.38;35.89;98244.41;5030004;28;20311;-61
2022/09/13 11:39:31;;;;;;;1.48;0.73;;;;;;;29.62;35.66;98254.84;5028709;28;20119;-61
2022/09/13 11:42:34;;;;;;;1.02;0.88;;;;;;;29.68;35.48;98248.75;5048394;28;20047;-61
2022/09/13 11:45:28;;;;;;;2.80;0.65;;;;;;;29.56;34.24;98245.06;5030602;28;20024;-61
2022/09/13 11:48:13;;;;;;;4.45;0.70;;;;;;;30.61;32.55;98242.75;5037724;28;20048;-61
2022/09/13 11:51:04;;;;;;;0.82;0.52;;;;;;;31.91;31.44;98233.41;5024702;28;20028;-61
2022/09/13 11:53:49;;;;;;;0.93;0.75;;;;;;;31.90;31.99;98223.41;5026869;28;20029;-61
2022/09/13 11:56:37;;;;;;;1.30;0.70;;;;;;;32.55;31.00;98214.72;5031311;28;20128;-60
2022/09/13 11:59:16;;;;;;;5.30;0.80;;;;;;;32.67;30.58;98228.56;5021633;28;20040;-61